createdAt,value
2022-12-16T00:01:07.923Z,83.78
2022-12-16T00:05:13.247Z,85.37
2022-12-16T00:09:16.558Z,83.65
2022-12-16T00:13:19.683Z,85.13
2022-12-16T00:17:23.897Z,84.96
2022-12-16T00:21:28.847Z,84.11
2022-12-16T00:25:32.158Z,84.73
2022-12-16T00:29:35.220Z,84.21
2022-12-16T00:33:38.311Z,84.44
2022-12-16T00:37:43.119Z,84.49
2022-12-16T00:41:47.840Z,85.35
2022-12-16T00:45:51.911Z,84.92
2022-12-16T00:49:55.562Z,83.83
2022-12-16T00:54:00.172Z,84.35
2022-12-16T00:58:03.395Z,85.56
2022-12-16T01:02:07.339Z,85.60
2022-12-16T01:06:13.114Z,86.16
2022-12-16T01:10:17.679Z,84.72
2022-12-16T01:14:21.561Z,85.12
2022-12-16T01:18:24.878Z,85.21
2022-12-16T01:22:28.433Z,84.80
2022-12-16T01:26:33.611Z,85.04
2022-12-16T01:30:36.781Z,84.94
2022-12-16T01:34:39.995Z,84.76
2022-12-16T01:38:45.077Z,84.73
2022-12-16T01:42:50.891Z,85.41
2022-12-16T01:46:57.689Z,84.79
2022-12-16T01:51:03.234Z,84.00
2022-12-16T01:55:11.037Z,80.70
2022-12-16T01:59:17.011Z,82.49
2022-12-16T02:03:20.693Z,84.16
2022-12-16T02:07:24.069Z,84.93
2022-12-16T02:11:43.307Z,85.01
2022-12-16T02:15:51.742Z,84.75
2022-12-16T02:20:23.975Z,86.63
2022-12-16T02:25:15.989Z,86.83
2022-12-16T02:29:48.015Z,87.15
2022-12-16T02:34:10.278Z,86.72
2022-12-16T02:38:21.065Z,86.18
2022-12-16T02:42:30.482Z,87.71
2022-12-16T02:46:34.548Z,87.13
2022-12-16T02:50:42.327Z,85.82
2022-12-16T02:54:45.636Z,87.39
2022-12-16T02:58:53.497Z,87.61
2022-12-16T03:03:00.084Z,86.45
2022-12-16T03:07:05.926Z,85.96
2022-12-16T03:11:09.496Z,87.19
2022-12-16T03:15:16.998Z,86.92
2022-12-16T03:19:21.327Z,87.61
2022-12-16T03:23:29.414Z,87.56
2022-12-16T03:27:37.338Z,86.21
2022-12-16T03:31:44.213Z,87.72
2022-12-16T03:35:51.192Z,87.92
2022-12-16T03:39:58.082Z,86.57
2022-12-16T03:44:02.110Z,87.27
2022-12-16T03:48:08.655Z,87.87
2022-12-16T03:52:11.939Z,87.93
2022-12-16T03:56:17.045Z,87.21
2022-12-16T04:00:20.967Z,86.60
2022-12-16T04:04:25.337Z,88.20
2022-12-16T04:08:28.693Z,87.03
2022-12-16T04:12:51.440Z,86.77
2022-12-16T04:17:12.273Z,87.76
2022-12-16T04:25:32.641Z,87.08
2022-12-16T04:29:58.231Z,88.63
2022-12-16T04:34:18.857Z,87.01
2022-12-16T04:38:39.545Z,87.11
2022-12-16T04:43:00.006Z,87.40
2022-12-16T04:55:44.986Z,88.16
2022-12-16T05:00:05.185Z,86.90
2022-12-16T05:08:42.120Z,86.76
2022-12-16T05:13:07.121Z,87.36
2022-12-16T05:17:28.323Z,86.62
2022-12-16T05:21:48.566Z,88.23
2022-12-16T06:08:57.377Z,87.38
2022-12-16T08:13:40.083Z,86.36
2022-12-16T08:18:01.614Z,86.85
2022-12-16T08:22:22.136Z,87.26
2022-12-16T08:26:42.344Z,86.64
2022-12-16T08:31:08.882Z,87.29
2022-12-16T08:35:29.494Z,87.62
2022-12-16T08:40:10.665Z,87.51
2022-12-16T08:44:30.305Z,86.74
2022-12-16T08:48:52.010Z,87.01
2022-12-16T08:53:12.127Z,87.60
2022-12-16T08:57:32.691Z,87.54
2022-12-16T09:01:53.026Z,85.21
2022-12-16T09:06:18.262Z,85.68
2022-12-16T09:10:40.594Z,85.94
2022-12-16T09:15:01.070Z,85.64
2022-12-16T09:19:21.674Z,85.52
2022-12-16T09:23:43.363Z,84.78
2022-12-16T09:28:18.186Z,85.33
2022-12-16T09:32:34.962Z,84.46
2022-12-16T09:36:55.270Z,83.42
2022-12-16T09:41:18.036Z,84.24
2022-12-16T09:45:45.002Z,84.28
2022-12-16T09:50:07.174Z,86.38
2022-12-16T09:54:30.960Z,83.54
2022-12-16T09:58:56.607Z,83.01
2022-12-16T10:03:17.841Z,80.14
2022-12-16T10:07:40.221Z,83.01
2022-12-16T10:12:06.611Z,78.39
2022-12-16T10:16:42.431Z,78.83
2022-12-16T10:21:05.183Z,76.14
2022-12-16T10:25:30.571Z,76.38
2022-12-16T10:29:55.000Z,76.65
2022-12-16T10:34:17.924Z,73.17
2022-12-16T10:38:40.724Z,76.74
2022-12-16T10:43:20.966Z,76.74
2022-12-16T10:47:42.787Z,77.85
2022-12-16T10:52:09.250Z,72.87
2022-12-16T10:56:43.069Z,75.40
2022-12-16T11:01:05.610Z,76.47
2022-12-16T11:05:42.035Z,74.65
2022-12-16T11:10:03.801Z,77.26
2022-12-16T11:14:34.921Z,75.37
2022-12-16T11:19:07.694Z,76.08
2022-12-16T11:23:37.640Z,74.28
2022-12-16T11:27:59.285Z,72.41
2022-12-16T11:32:22.190Z,71.71
2022-12-16T11:36:43.209Z,71.85
2022-12-16T11:41:03.302Z,70.72
2022-12-16T11:45:31.690Z,71.56
2022-12-16T11:55:27.629Z,64.77
2022-12-16T12:00:01.512Z,69.03
2022-12-16T12:04:23.491Z,68.47
2022-12-16T12:08:50.376Z,69.54
2022-12-16T12:13:15.519Z,67.67
2022-12-16T12:17:43.586Z,65.83
2022-12-16T12:22:20.271Z,65.57
2022-12-16T12:26:44.158Z,63.20
2022-12-16T12:31:09.117Z,65.45
2022-12-16T12:35:39.912Z,61.71
2022-12-16T12:40:04.677Z,65.04
2022-12-16T12:44:37.052Z,63.24
2022-12-16T12:49:13.440Z,65.54
2022-12-16T12:53:42.185Z,65.92
2022-12-16T12:58:05.587Z,64.91
2022-12-16T13:02:30.889Z,63.69
2022-12-16T13:06:53.372Z,65.36
2022-12-16T13:11:35.008Z,63.97
2022-12-16T13:15:58.311Z,62.62
2022-12-16T13:20:18.957Z,62.77
2022-12-16T13:24:39.964Z,64.52
2022-12-16T13:29:00.815Z,63.37
2022-12-16T13:33:25.774Z,60.48
2022-12-16T13:37:46.940Z,62.95
2022-12-16T13:42:10.101Z,60.36
2022-12-16T13:46:35.638Z,59.08
2022-12-16T13:50:59.061Z,64.32
2022-12-16T13:55:32.246Z,63.47
2022-12-16T13:59:56.092Z,64.77
2022-12-16T14:04:18.265Z,64.56
2022-12-16T14:08:41.783Z,66.03
2022-12-16T14:13:14.656Z,64.34
2022-12-16T14:17:37.374Z,66.46
2022-12-16T14:22:10.276Z,66.27
2022-12-16T14:26:33.033Z,67.04
2022-12-16T14:30:53.185Z,64.50
2022-12-16T14:35:19.735Z,67.21
2022-12-16T14:39:49.028Z,67.71
2022-12-16T14:44:10.815Z,68.43
2022-12-16T14:48:42.094Z,70.81
2022-12-16T14:53:22.252Z,68.37
2022-12-16T14:57:43.291Z,68.27
2022-12-16T15:02:05.811Z,71.02
2022-12-16T15:06:31.216Z,72.31
2022-12-16T15:10:52.146Z,74.04
2022-12-16T15:15:15.156Z,73.00
2022-12-16T15:19:39.055Z,75.00
2022-12-16T15:24:00.932Z,74.66
2022-12-16T15:28:32.512Z,75.71
2022-12-16T15:32:54.388Z,76.23
2022-12-16T15:37:15.846Z,77.98
2022-12-16T15:41:40.002Z,78.23
2022-12-16T15:46:07.228Z,78.56
2022-12-16T15:50:30.960Z,79.01
2022-12-16T15:54:53.128Z,77.91
2022-12-16T15:59:33.139Z,78.46
2022-12-16T16:03:53.305Z,80.34
2022-12-16T16:08:13.560Z,80.39
2022-12-16T16:12:36.907Z,81.64
2022-12-16T16:16:57.108Z,81.24
2022-12-16T16:21:17.192Z,81.86
2022-12-16T16:25:37.348Z,81.56
2022-12-16T16:29:59.069Z,82.47
2022-12-16T16:34:19.135Z,83.01
2022-12-16T16:38:39.398Z,82.44
2022-12-16T16:42:59.934Z,82.93
2022-12-16T16:47:21.955Z,83.38
2022-12-16T16:51:42.073Z,83.35
2022-12-16T16:56:02.626Z,83.20
2022-12-16T17:00:24.185Z,82.54
2022-12-16T17:04:45.958Z,82.95
2022-12-16T17:09:06.511Z,82.71
2022-12-16T17:13:27.919Z,83.57
2022-12-16T17:17:59.831Z,83.84
2022-12-16T17:22:21.748Z,83.65
2022-12-16T17:26:42.418Z,84.36
2022-12-16T17:31:03.369Z,83.04
2022-12-16T17:35:24.402Z,83.55
2022-12-16T17:39:46.239Z,86.20
2022-12-16T17:44:06.406Z,86.29
2022-12-16T17:48:27.169Z,84.83
2022-12-16T17:52:47.347Z,85.08
2022-12-16T17:57:09.359Z,85.86
2022-12-16T18:01:29.873Z,86.74
2022-12-16T18:05:50.403Z,85.10
2022-12-16T18:10:10.802Z,85.54
2022-12-16T18:14:32.865Z,84.75
2022-12-16T18:18:53.872Z,84.68
2022-12-16T18:23:17.611Z,85.75
2022-12-16T18:27:37.970Z,85.00
2022-12-16T18:32:01.223Z,84.38
2022-12-16T18:36:22.063Z,84.24
2022-12-16T18:40:42.297Z,86.17
2022-12-16T18:45:02.671Z,85.25
2022-12-16T18:49:25.225Z,86.82
2022-12-16T18:53:46.280Z,84.78
2022-12-16T18:58:27.533Z,86.65
2022-12-16T19:02:48.784Z,86.00
2022-12-16T19:07:11.061Z,86.57
2022-12-16T19:11:31.394Z,85.29
2022-12-16T19:15:52.580Z,86.74
2022-12-16T19:20:09.635Z,87.02
2022-12-16T19:24:31.734Z,85.19
2022-12-16T19:28:53.241Z,86.12
2022-12-16T19:33:17.526Z,86.00
2022-12-16T19:37:38.122Z,85.67
2022-12-16T19:42:00.392Z,84.02
2022-12-16T19:46:21.159Z,85.60
2022-12-16T19:50:41.709Z,86.94
2022-12-16T19:55:03.255Z,86.64
2022-12-16T19:59:27.482Z,85.47
2022-12-16T20:03:48.779Z,86.21
2022-12-16T20:08:10.136Z,85.99
2022-12-16T20:12:31.004Z,86.31
2022-12-16T20:16:52.943Z,86.56
2022-12-16T20:21:14.246Z,86.90
2022-12-16T20:25:34.683Z,86.17
2022-12-16T20:29:56.447Z,86.54
2022-12-16T20:34:18.697Z,86.59
2022-12-16T20:38:39.356Z,86.51
2022-12-16T20:42:59.851Z,85.72
2022-12-16T20:47:20.822Z,84.97
2022-12-16T20:51:43.123Z,85.42
2022-12-16T20:56:03.881Z,86.15
2022-12-16T21:00:25.584Z,86.50
2022-12-16T21:04:46.644Z,86.56
2022-12-16T21:09:07.494Z,86.12
2022-12-16T21:13:29.137Z,86.33
2022-12-16T21:17:49.775Z,86.38
2022-12-16T21:22:10.964Z,85.56
2022-12-16T21:26:33.120Z,85.80
2022-12-16T21:30:53.847Z,85.64
2022-12-16T21:35:14.976Z,85.38
2022-12-16T21:39:40.775Z,86.64
2022-12-16T21:44:01.937Z,86.71
2022-12-16T21:48:22.405Z,87.06
2022-12-16T21:52:39.786Z,86.69
2022-12-16T21:57:00.803Z,86.10
2022-12-16T22:01:23.400Z,87.30
2022-12-16T22:05:43.946Z,87.55
2022-12-16T22:10:05.714Z,86.64
2022-12-16T22:14:26.152Z,85.45
2022-12-16T22:18:48.246Z,85.57
2022-12-16T22:23:08.971Z,87.38
2022-12-16T22:27:31.035Z,86.13
2022-12-16T22:36:20.980Z,85.65
2022-12-16T22:40:41.537Z,85.76
2022-12-16T22:49:30.014Z,87.20
2022-12-16T22:53:52.247Z,86.18
2022-12-16T22:58:13.286Z,86.08
2022-12-16T23:07:10.293Z,86.24
2022-12-16T23:11:38.588Z,86.16
2022-12-16T23:16:15.420Z,86.27
2022-12-16T23:20:36.417Z,85.77
2022-12-16T23:24:57.362Z,85.33
2022-12-16T23:29:19.511Z,86.20
2022-12-16T23:33:40.182Z,86.44
2022-12-16T23:38:06.602Z,86.14
2022-12-16T23:42:27.873Z,85.84
2022-12-16T23:46:50.577Z,85.38
2022-12-16T23:51:12.128Z,86.11
2022-12-16T23:55:33.894Z,86.00
2022-12-16T23:59:54.652Z,86.25
